Time;durP1;ratioP1;P1;durP2;ratioP2;P2;SDS_P1;SDS_P2;PMS_P1;PMS_P2;Temp;Humidity;BMP_temperature;BMP_pressure;BME280_temperature;BME280_humidity;BME280_pressure;Samples;Min_cycle;Max_cycle;Signal;HPM_P1;HPM_P2
2021/12/23 00:00:06;;;;;;;;;;;;;;;20.65;25.29;95883.72;10402726;28;1923;-47
2021/12/23 00:05:07;;;;;;;;;;;;;;;20.64;25.27;95876.09;10408605;28;2614;-50
2021/12/23 00:10:09;;;;;;;;;;;;;;;20.64;25.41;95874.25;10407637;28;1945;-46
2021/12/23 00:15:16;;;;;;;;;;;;;;;20.67;24.93;95871.06;10403382;28;1753;-48
2021/12/23 00:25:17;;;;;;;;;;;;;;;20.66;25.18;95869.50;10393503;28;1782;-47
2021/12/23 00:30:18;;;;;;;;;;;;;;;20.65;25.21;95867.16;10402301;28;1783;-46
2021/12/23 00:35:18;;;;;;;;;;;;;;;20.66;24.97;95864.22;10403967;28;1827;-46
2021/12/23 00:40:19;;;;;;;;;;;;;;;20.64;25.10;95855.03;10394954;28;1969;-46
2021/12/23 00:45:20;;;;;;;;;;;;;;;20.65;24.83;95857.38;10406888;28;2063;-48
2021/12/23 00:50:21;;;;;;;;;;;;;;;20.65;24.87;95854.75;10398641;28;1771;-46
2021/12/23 00:55:22;;;;;;;;;;;;;;;20.62;25.16;95842.13;10416948;28;1871;-46
2021/12/23 01:00:22;;;;;;;;;;;;;;;20.62;24.80;95842.13;10411790;28;2293;-48
2021/12/23 01:05:23;;;;;;;;;;;;;;;20.64;24.92;95840.00;10403626;28;1961;-49
2021/12/23 01:10:24;;;;;;;;;;;;;;;20.64;24.62;95829.47;10400147;28;1834;-46
2021/12/23 01:20:30;;;;;;;;;;;;;;;20.63;24.95;95841.06;10402914;28;1968;-48
2021/12/23 01:25:30;;;;;;;;;;;;;;;20.61;24.96;95840.53;10404392;28;1870;-47
2021/12/23 01:30:31;;;;;;;;;;;;;;;20.62;24.91;95847.41;10398922;28;1830;-46
2021/12/23 01:35:31;;;;;;;;;;;;;;;20.62;25.07;95852.66;10391876;28;1774;-46
2021/12/23 01:40:32;;;;;;;;;;;;;;;20.61;25.01;95847.69;10399101;28;1968;-48
2021/12/23 01:45:33;;;;;;;;;;;;;;;20.59;24.93;95847.91;10399570;28;1822;-46
2021/12/23 01:50:37;;;;;;;;;;;;;;;20.61;24.89;95850.31;10404339;28;2062;-45
2021/12/23 01:55:38;;;;;;;;;;;;;;;20.63;24.82;95842.94;10397053;28;1925;-53
2021/12/23 02:00:38;;;;;;;;;;;;;;;20.60;24.48;95841.63;10404586;28;1906;-48
2021/12/23 02:05:39;;;;;;;;;;;;;;;20.61;24.67;95843.19;10399838;28;1858;-48
2021/12/23 02:10:41;;;;;;;;;;;;;;;20.60;24.92;95836.34;10407598;28;1780;-46
2021/12/23 02:15:42;;;;;;;;;;;;;;;20.58;24.66;95827.94;10395093;28;1787;-47
2021/12/23 02:20:42;;;;;;;;;;;;;;;20.58;24.75;95806.06;10392809;28;1973;-48
2021/12/23 02:25:43;;;;;;;;;;;;;;;20.58;24.93;95804.22;10396111;28;1878;-48
2021/12/23 02:30:43;;;;;;;;;;;;;;;20.58;24.80;95796.31;10401444;28;1854;-48
2021/12/23 02:35:44;;;;;;;;;;;;;;;20.58;24.95;95792.91;10400502;28;1784;-50
2021/12/23 02:40:44;;;;;;;;;;;;;;;20.59;24.64;95781.28;10399166;28;1949;-46
2021/12/23 02:45:46;;;;;;;;;;;;;;;20.58;24.77;95764.72;10401716;28;1900;-49
2021/12/23 02:50:48;;;;;;;;;;;;;;;20.59;24.52;95766.28;10403030;28;2436;-46
2021/12/23 02:55:48;;;;;;;;;;;;;;;20.58;24.82;95750.75;10409362;28;2013;-48
2021/12/23 03:00:51;;;;;;;;;;;;;;;20.58;24.66;95756.03;10392760;28;2017;-49
2021/12/23 03:05:52;;;;;;;;;;;;;;;20.57;24.74;95771.03;10388177;28;2147;-50
2021/12/23 03:10:52;;;;;;;;;;;;;;;20.57;24.72;95773.66;10397105;28;1986;-46
2021/12/23 03:15:53;;;;;;;;;;;;;;;20.54;24.71;95768.97;10398237;28;1879;-45
2021/12/23 03:21:03;;;;;;;;;;;;;;;20.55;24.74;95762.63;10388442;28;1993;-47
2021/12/23 03:26:11;;;;;;;;;;;;;;;20.55;24.71;95757.34;10397233;28;1941;-46
2021/12/23 03:31:17;;;;;;;;;;;;;;;20.56;24.79;95758.16;10404971;28;1933;-45
2021/12/23 03:36:17;;;;;;;;;;;;;;;20.56;24.76;95743.16;10435933;23;1989;-64
2021/12/23 03:41:18;;;;;;;;;;;;;;;20.53;24.67;95738.41;10403871;28;1937;-64
2021/12/23 03:46:18;;;;;;;;;;;;;;;20.53;24.77;95727.88;10413721;28;1998;-63
2021/12/23 03:51:19;;;;;;;;;;;;;;;20.54;24.77;95713.66;10384485;28;3572;-63
2021/12/23 03:56:19;;;;;;;;;;;;;;;20.53;24.74;95712.06;10400371;28;1964;-63
2021/12/23 04:01:19;;;;;;;;;;;;;;;20.52;24.67;95713.16;10398729;28;2432;-65
2021/12/23 04:06:20;;;;;;;;;;;;;;;20.53;24.81;95712.06;10400622;28;1935;-65
2021/12/23 04:11:21;;;;;;;;;;;;;;;20.53;24.54;95711.28;10408084;28;1934;-64
2021/12/23 04:16:21;;;;;;;;;;;;;;;20.53;24.42;95714.72;10401059;28;2656;-64
2021/12/23 04:21:22;;;;;;;;;;;;;;;20.52;24.64;95707.09;10395486;28;2036;-64
2021/12/23 04:26:22;;;;;;;;;;;;;;;20.53;24.63;95690.22;10415665;28;1980;-62
2021/12/23 04:31:23;;;;;;;;;;;;;;;20.50;24.58;95675.78;10408055;28;1933;-64
2021/12/23 04:36:27;;;;;;;;;;;;;;;20.52;24.64;95667.59;10414726;28;1973;-63
2021/12/23 04:41:27;;;;;;;;;;;;;;;20.53;24.56;95655.97;10403745;28;1972;-64
2021/12/23 04:46:27;;;;;;;;;;;;;;;20.52;24.42;95652.59;10411789;28;1930;-64
2021/12/23 04:51:28;;;;;;;;;;;;;;;20.51;23.92;95632.56;10407077;28;1858;-63
2021/12/23 04:56:28;;;;;;;;;;;;;;;20.51;24.78;95627.31;10402926;28;1826;-64
2021/12/23 05:01:31;;;;;;;;;;;;;;;20.51;24.56;95629.13;10408144;28;1910;-62
2021/12/23 05:06:31;;;;;;;;;;;;;;;20.49;24.30;95631.25;10408549;28;2024;-65
2021/12/23 05:11:32;;;;;;;;;;;;;;;20.51;24.50;95645.72;10399919;28;1931;-65
2021/12/23 05:16:32;;;;;;;;;;;;;;;20.50;24.49;95644.19;10410396;28;1962;-64
2021/12/23 05:21:33;;;;;;;;;;;;;;;20.53;24.60;95654.13;10394410;28;1967;-64
2021/12/23 05:26:33;;;;;;;;;;;;;;;20.51;24.55;95652.84;10397488;28;2030;-64
2021/12/23 05:31:34;;;;;;;;;;;;;;;20.51;24.58;95661.53;10398839;28;2010;-64
2021/12/23 05:36:34;;;;;;;;;;;;;;;20.54;24.57;95661.00;10396997;28;1926;-63
2021/12/23 05:41:34;;;;;;;;;;;;;;;20.52;24.56;95657.06;10403614;28;2394;-65
2021/12/23 05:46:35;;;;;;;;;;;;;;;20.51;24.44;95648.38;10399793;28;2199;-64
2021/12/23 05:51:35;;;;;;;;;;;;;;;20.50;24.44;95644.19;10405477;28;3067;-62
2021/12/23 05:56:35;;;;;;;;;;;;;;;20.50;24.51;95649.44;10408786;28;2002;-61
2021/12/23 06:01:36;;;;;;;;;;;;;;;20.49;24.14;95634.69;10399612;28;1955;-61
2021/12/23 06:06:37;;;;;;;;;;;;;;;20.50;24.46;95627.59;10409630;28;1884;-62
2021/12/23 06:11:37;;;;;;;;;;;;;;;20.49;24.00;95629.41;10392359;28;1990;-61
2021/12/23 06:16:37;;;;;;;;;;;;;;;20.49;24.26;95631.25;10397798;28;1903;-62
2021/12/23 06:21:38;;;;;;;;;;;;;;;20.49;23.79;95637.31;10392907;28;1978;-62
2021/12/23 06:26:38;;;;;;;;;;;;;;;20.51;24.44;95644.94;10401358;28;1961;-62
2021/12/23 06:31:39;;;;;;;;;;;;;;;20.50;24.37;95632.84;10405975;28;2045;-62
2021/12/23 06:36:39;;;;;;;;;;;;;;;20.46;23.91;95648.41;10415004;28;2449;-62
2021/12/23 06:41:40;;;;;;;;;;;;;;;20.51;24.14;95643.09;10396007;28;2024;-62
2021/12/23 06:46:41;;;;;;;;;;;;;;;20.51;24.21;95640.47;10406601;28;1979;-62
2021/12/23 06:51:42;;;;;;;;;;;;;;;20.51;24.43;95655.47;10397886;28;2016;-59
2021/12/23 06:56:42;;;;;;;;;;;;;;;20.47;23.82;95649.97;10400115;28;1973;-60
2021/12/23 07:01:46;;;;;;;;;;;;;;;20.47;24.38;95639.44;10396970;28;1976;-61
2021/12/23 07:06:55;;;;;;;;;;;;;;;20.51;24.09;95635.19;10404768;28;2142;-60
2021/12/23 07:11:56;;;;;;;;;;;;;;;20.48;24.47;95638.41;10395240;28;2038;-62
2021/12/23 07:16:56;;;;;;;;;;;;;;;20.50;24.29;95632.84;10406230;28;2177;-61
2021/12/23 07:21:57;;;;;;;;;;;;;;;20.49;23.77;95647.84;10400978;28;2280;-62
2021/12/23 07:26:57;;;;;;;;;;;;;;;20.39;23.57;95660.31;10401252;28;1988;-62
2021/12/23 07:31:58;;;;;;;;;;;;;;;20.37;23.81;95660.59;10399852;28;2077;-62
2021/12/23 07:36:58;;;;;;;;;;;;;;;20.39;23.69;95658.47;10390129;28;2067;-61
2021/12/23 07:41:59;;;;;;;;;;;;;;;20.39;23.92;95665.56;10400419;28;1965;-61
2021/12/23 07:46:59;;;;;;;;;;;;;;;20.40;23.95;95682.94;10384060;28;2003;-59
2021/12/23 07:51:59;;;;;;;;;;;;;;;20.36;22.97;95668.75;10394950;28;3284;-61
2021/12/23 07:57:00;;;;;;;;;;;;;;;20.36;23.12;95661.63;10398217;28;1920;-61
2021/12/23 08:02:00;;;;;;;;;;;;;;;20.37;24.23;95647.41;10400636;28;2179;-61
2021/12/23 08:07:02;;;;;;;;;;;;;;;20.39;24.25;95652.41;10399631;28;1846;-60
2021/12/23 08:12:05;;;;;;;;;;;;;;;20.40;23.69;95665.31;10395670;28;1783;-59
2021/12/23 08:17:06;;;;;;;;;;;;;;;20.39;23.98;95653.19;10376912;28;1891;-60
2021/12/23 08:22:07;;;;;;;;;;;;;;;20.39;23.92;95642.66;10394751;28;2020;-61
2021/12/23 08:27:08;;;;;;;;;;;;;;;20.40;24.38;95625.81;10397347;28;1937;-62
2021/12/23 08:32:09;;;;;;;;;;;;;;;20.42;23.94;95623.69;10392870;28;1989;-62
2021/12/23 08:37:11;;;;;;;;;;;;;;;20.40;24.08;95619.75;10395186;28;1844;-60
2021/12/23 08:42:11;;;;;;;;;;;;;;;20.38;23.90;95609.50;10389819;28;1914;-61
2021/12/23 08:47:13;;;;;;;;;;;;;;;20.30;23.28;95623.25;10396702;28;1769;-62
2021/12/23 08:52:14;;;;;;;;;;;;;;;20.30;23.40;95623.25;10392767;28;2546;-62
2021/12/23 08:57:14;;;;;;;;;;;;;;;20.33;24.40;95614.00;10384757;28;2558;-63
2021/12/23 09:02:15;;;;;;;;;;;;;;;20.40;25.01;95602.13;10368669;28;1911;-65
2021/12/23 09:07:15;;;;;;;;;;;;;;;20.47;26.52;95601.78;10398383;28;1816;-62
2021/12/23 09:12:15;;;;;;;;;;;;;;;20.52;26.64;95592.03;10394835;28;2203;-63
2021/12/23 09:17:16;;;;;;;;;;;;;;;20.49;26.59;95584.66;10394730;28;1863;-62
2021/12/23 09:22:16;;;;;;;;;;;;;;;20.54;27.67;95579.38;10390798;28;2150;-63
2021/12/23 09:27:34;;;;;;;;;;;;;;;20.53;27.29;95580.41;10394103;28;1785;-63
2021/12/23 09:32:42;;;;;;;;;;;;;;;20.52;27.52;95586.75;10389665;28;1844;-62
2021/12/23 09:37:42;;;;;;;;;;;;;;;20.53;27.57;95580.41;10400148;28;1894;-63
2021/12/23 09:42:44;;;;;;;;;;;;;;;20.50;27.81;95573.09;10396335;28;1910;-61
2021/12/23 09:47:48;;;;;;;;;;;;;;;20.50;27.95;95586.25;10395077;28;2340;-63
2021/12/23 09:52:49;;;;;;;;;;;;;;;20.48;28.17;95592.84;10391249;28;3103;-63
2021/12/23 09:57:50;;;;;;;;;;;;;;;20.47;28.04;95578.09;10398119;28;1857;-63
2021/12/23 10:02:51;;;;;;;;;;;;;;;20.36;28.15;95558.19;10402363;28;1913;-64
2021/12/23 10:07:53;;;;;;;;;;;;;;;19.99;25.20;95548.97;10393415;28;1966;-64
2021/12/23 10:30:12;;;;;;;;;;;;;;;19.76;25.75;95525.22;10413469;28;1736;-73
2021/12/23 10:39:35;;;;;;;;;;;;;;;19.75;26.00;95513.91;10415844;28;1902;-74
2021/12/23 10:44:35;;;;;;;;;;;;;;;19.73;25.91;95510.75;10395822;28;1755;-74
2021/12/23 10:49:42;;;;;;;;;;;;;;;19.74;25.90;95487.88;10387332;28;2360;-75
2021/12/23 10:59:53;;;;;;;;;;;;;;;19.70;26.06;95452.66;10417743;28;1907;-74
2021/12/23 11:05:26;;;;;;;;;;;;;;;19.64;26.10;95449.28;10394904;28;1849;-75
2021/12/23 11:35:44;;;;;;;;;;;;;;;19.45;26.43;95412.34;10404524;28;2126;-74
2021/12/23 11:37:46;;;;;;;;;;;;;;;19.42;26.58;95406.84;10421883;28;1810;-74
2021/12/23 11:43:12;;;;;;;;;;;;;;;19.35;26.60;95404.53;10402924;28;1875;-74
2021/12/23 11:48:04;;;;;;;;;;;;;;;19.33;26.63;95397.97;10412167;28;1809;-74
2021/12/23 11:53:05;;;;;;;;;;;;;;;19.30;26.70;95396.66;10386231;28;1881;-74
2021/12/23 11:58:05;;;;;;;;;;;;;;;19.30;26.63;95391.41;10398459;28;1969;-74
2021/12/23 12:03:06;;;;;;;;;;;;;;;19.24;26.78;95389.88;10411082;28;1834;-74
2021/12/23 12:08:07;;;;;;;;;;;;;;;19.21;26.79;95381.72;10398579;28;1855;-75
2021/12/23 12:13:12;;;;;;;;;;;;;;;19.14;26.90;95374.19;10379725;28;1775;-74
2021/12/23 12:18:22;;;;;;;;;;;;;;;19.17;26.78;95373.63;10411398;28;1911;-74
2021/12/23 12:23:29;;;;;;;;;;;;;;;19.16;26.83;95366.03;10409575;28;1802;-74
2021/12/23 12:28:30;;;;;;;;;;;;;;;19.08;26.90;95362.09;10403431;28;1909;-74
2021/12/23 12:33:34;;;;;;;;;;;;;;;19.07;26.85;95351.88;10407847;28;1854;-73
2021/12/23 12:38:39;;;;;;;;;;;;;;;19.06;26.91;95361.59;10410291;28;1918;-75
2021/12/23 12:43:51;;;;;;;;;;;;;;;18.97;27.11;95352.75;10400813;28;1866;-74
2021/12/23 12:48:55;;;;;;;;;;;;;;;18.94;27.23;95337.50;10416151;28;1912;-72
2021/12/23 12:54:02;;;;;;;;;;;;;;;18.93;27.08;95335.97;10415792;28;1788;-72
2021/12/23 12:59:06;;;;;;;;;;;;;;;18.91;26.98;95319.69;10406482;28;1906;-72
2021/12/23 13:04:17;;;;;;;;;;;;;;;18.88;27.01;95317.59;10390106;28;1841;-72
2021/12/23 13:09:22;;;;;;;;;;;;;;;18.89;27.01;95326.25;10409919;28;1772;-72
2021/12/23 13:14:22;;;;;;;;;;;;;;;18.81;27.17;95316.34;10409956;28;1865;-70
2021/12/23 13:19:24;;;;;;;;;;;;;;;18.79;27.10;95307.94;10394498;28;1910;-73
2021/12/23 13:24:25;;;;;;;;;;;;;;;18.76;27.18;95309.28;10413476;28;1870;-72
2021/12/23 13:29:28;;;;;;;;;;;;;;;18.74;27.17;95298.25;10385178;28;1873;-72
2021/12/23 13:34:29;;;;;;;;;;;;;;;18.69;27.37;95293.81;10375752;28;1720;-72
2021/12/23 13:39:30;;;;;;;;;;;;;;;18.66;27.26;95288.34;10404555;28;1971;-72
2021/12/23 13:44:32;;;;;;;;;;;;;;;18.68;27.26;95280.97;10406466;28;1774;-72
2021/12/23 13:49:35;;;;;;;;;;;;;;;18.63;27.23;95283.63;10407553;28;1896;-72
2021/12/23 13:54:37;;;;;;;;;;;;;;;18.58;27.29;95281.03;10405989;28;1869;-73
2021/12/23 13:59:37;;;;;;;;;;;;;;;18.57;27.47;95284.72;10385157;28;1910;-72
2021/12/23 14:04:42;;;;;;;;;;;;;;;18.53;27.45;95284.47;10412215;28;1771;-72
2021/12/23 14:09:47;;;;;;;;;;;;;;;18.50;27.41;95284.25;10418783;28;1850;-71
2021/12/23 14:14:51;;;;;;;;;;;;;;;18.49;27.35;95269.53;10393646;28;1826;-72
2021/12/23 14:25:22;;;;;;;;;;;;;;;18.44;27.53;95264.34;10398028;28;1886;-73
2021/12/23 14:30:32;;;;;;;;;;;;;;;18.44;27.52;95280.06;10380553;28;1883;-71
2021/12/23 14:35:33;;;;;;;;;;;;;;;18.43;27.53;95281.09;10411264;28;1827;-72
2021/12/23 14:40:34;;;;;;;;;;;;;;;18.40;27.46;95285.03;10387709;28;1922;-72
2021/12/23 14:45:34;;;;;;;;;;;;;;;18.36;27.43;95285.88;10369576;28;1854;-73
2021/12/23 14:50:38;;;;;;;;;;;;;;;18.36;27.47;95283.25;10388551;28;1823;-72
2021/12/23 14:55:38;;;;;;;;;;;;;;;18.33;27.57;95278.50;10381439;28;1657;-72
2021/12/23 15:00:43;;;;;;;;;;;;;;;18.27;27.53;95275.16;10397627;28;1977;-72
2021/12/23 15:05:44;;;;;;;;;;;;;;;18.32;27.43;95276.97;10409401;28;1853;-71
2021/12/23 15:10:52;;;;;;;;;;;;;;;18.24;27.50;95274.88;10381706;28;1870;-71
2021/12/23 15:16:01;;;;;;;;;;;;;;;18.21;27.59;95275.44;10399221;28;1842;-72
2021/12/23 15:21:06;;;;;;;;;;;;;;;18.22;27.38;95262.03;10400760;28;1933;-71
2021/12/23 15:26:26;;;;;;;;;;;;;;;18.21;27.58;95275.44;10404022;28;1857;-71
2021/12/23 15:31:26;;;;;;;;;;;;;;;18.20;27.29;95274.63;10414519;28;1818;-72
2021/12/23 15:36:27;;;;;;;;;;;;;;;18.17;27.54;95263.91;10409919;28;1849;-71
2021/12/23 15:41:27;;;;;;;;;;;;;;;18.11;27.64;95265.78;10394886;28;1973;-72
2021/12/23 15:46:27;;;;;;;;;;;;;;;18.13;27.57;95262.88;10416695;28;1831;-72
2021/12/23 15:51:28;;;;;;;;;;;;;;;18.09;27.41;95264.47;10378651;28;1819;-72
2021/12/23 15:56:28;;;;;;;;;;;;;;;18.10;27.43;95256.31;10398891;28;1799;-72
2021/12/23 16:01:28;;;;;;;;;;;;;;;18.08;27.43;95255.81;10385982;28;1905;-72
2021/12/23 16:11:49;;;;;;;;;;;;;;;18.01;27.63;95249.28;10402837;28;1854;-72
2021/12/23 16:16:49;;;;;;;;;;;;;;;18.04;27.52;95243.50;10396279;28;1856;-72
2021/12/23 16:21:50;;;;;;;;;;;;;;;18.00;27.66;95227.53;10396022;28;2321;-72
2021/12/23 16:26:50;;;;;;;;;;;;;;;18.00;27.54;95213.63;10398831;28;1860;-72
2021/12/23 16:31:51;;;;;;;;;;;;;;;17.98;27.68;95206.03;10394430;28;1849;-72
2021/12/23 16:36:51;;;;;;;;;;;;;;;17.96;27.68;95202.91;10408329;28;1905;-71
2021/12/23 16:41:52;;;;;;;;;;;;;;;17.99;27.52;95191.09;10389483;28;1963;-72
2021/12/23 16:46:52;;;;;;;;;;;;;;;17.94;27.65;95184.03;10402354;28;1778;-72
2021/12/23 16:51:52;;;;;;;;;;;;;;;17.94;27.58;95196.34;10399388;28;1963;-72
2021/12/23 17:02:05;;;;;;;;;;;;;;;17.87;27.71;95176.44;10409170;28;1918;-71
2021/12/23 17:07:05;;;;;;;;;;;;;;;17.88;27.69;95179.88;10413484;28;1806;-71
2021/12/23 17:12:06;;;;;;;;;;;;;;;17.84;27.54;95179.63;10401127;28;1952;-71
2021/12/23 17:17:06;;;;;;;;;;;;;;;17.86;27.59;95188.00;10386583;28;1865;-72
2021/12/23 17:22:07;;;;;;;;;;;;;;;17.83;27.67;95185.91;10406845;28;1914;-72
2021/12/23 17:27:07;;;;;;;;;;;;;;;17.81;27.61;95180.16;10409150;28;1803;-71
2021/12/23 17:32:09;;;;;;;;;;;;;;;17.78;27.72;95183.28;10414234;28;1905;-70
2021/12/23 17:37:11;;;;;;;;;;;;;;;17.77;27.77;95175.72;10402255;28;1822;-70
2021/12/23 17:42:11;;;;;;;;;;;;;;;17.75;27.72;95162.88;10401592;28;2038;-70
2021/12/23 17:47:12;;;;;;;;;;;;;;;17.78;27.67;95141.34;10408818;28;1876;-70
2021/12/23 17:52:13;;;;;;;;;;;;;;;17.73;27.79;95127.50;10398662;28;1845;-70
2021/12/23 17:57:14;;;;;;;;;;;;;;;17.72;27.80;95120.69;10409003;28;1156;-72
2021/12/23 18:02:15;;;;;;;;;;;;;;;17.71;27.87;95117.28;10391366;28;1982;-71
2021/12/23 18:07:15;;;;;;;;;;;;;;;17.67;27.88;95105.00;10375374;28;1888;-72
2021/12/23 18:12:17;;;;;;;;;;;;;;;17.66;27.90;95111.31;10407889;28;1869;-72
2021/12/23 18:17:17;;;;;;;;;;;;;;;17.70;27.72;95113.09;10411150;28;2023;-73
2021/12/23 18:22:17;;;;;;;;;;;;;;;17.64;27.89;95108.94;10403597;28;1967;-72
2021/12/23 18:27:19;;;;;;;;;;;;;;;17.65;27.85;95102.66;10399552;28;1834;-72
2021/12/23 18:32:20;;;;;;;;;;;;;;;17.63;27.90;95101.34;10390635;28;1957;-71
2021/12/23 18:37:20;;;;;;;;;;;;;;;17.61;27.76;95082.47;10397325;28;1839;-72
2021/12/23 18:42:26;;;;;;;;;;;;;;;17.62;27.86;95079.59;10412900;28;1966;-72
2021/12/23 18:47:27;;;;;;;;;;;;;;;17.57;28.00;95073.59;10396616;28;1845;-72
2021/12/23 18:52:27;;;;;;;;;;;;;;;17.57;27.94;95061.28;10415780;23;2074;-62
2021/12/23 18:57:27;;;;;;;;;;;;;;;17.56;27.82;95048.44;10356078;28;1961;-62
2021/12/23 19:02:41;;;;;;;;;;;;;;;17.51;28.11;95051.09;10379909;28;1902;-64
2021/12/23 19:07:42;;;;;;;;;;;;;;;17.51;28.00;95066.81;10377734;28;1801;-63
2021/12/23 19:12:42;;;;;;;;;;;;;;;17.52;27.93;95071.78;10381880;28;1847;-63
2021/12/23 19:17:43;;;;;;;;;;;;;;;17.49;28.17;95064.47;10363951;28;1830;-63
2021/12/23 19:22:44;;;;;;;;;;;;;;;17.48;28.05;95068.09;10369320;28;2114;-61
2021/12/23 19:27:44;;;;;;;;;;;;;;;17.48;28.13;95067.31;10365903;28;1846;-63
2021/12/23 19:32:45;;;;;;;;;;;;;;;17.48;28.03;95067.31;10377904;28;1970;-63
2021/12/23 19:37:49;;;;;;;;;;;;;;;17.44;28.08;95067.06;10378012;28;1872;-63
2021/12/23 19:42:49;;;;;;;;;;;;;;;17.43;27.97;95057.66;10380940;28;2000;-63
2021/12/23 19:47:50;;;;;;;;;;;;;;;17.43;28.11;95056.88;10370585;28;1980;-63
2021/12/23 19:52:53;;;;;;;;;;;;;;;17.40;28.15;95047.72;10370348;28;1857;-62
2021/12/23 19:57:53;;;;;;;;;;;;;;;17.39;28.03;95051.41;10365270;28;1896;-62
2021/12/23 20:02:57;;;;;;;;;;;;;;;17.38;27.96;95049.81;10371012;28;1992;-63
2021/12/23 20:07:58;;;;;;;;;;;;;;;17.36;27.97;95049.31;10379141;28;1735;-63
2021/12/23 20:13:00;;;;;;;;;;;;;;;17.35;27.98;95047.72;10364634;28;1893;-63
2021/12/23 20:18:00;;;;;;;;;;;;;;;17.33;28.01;95052.44;10368725;28;1822;-63
2021/12/23 20:23:01;;;;;;;;;;;;;;;17.31;27.92;95045.94;10365989;28;1899;-62
2021/12/23 20:28:02;;;;;;;;;;;;;;;17.30;28.16;95066.09;10356995;28;1986;-63
2021/12/23 20:33:03;;;;;;;;;;;;;;;17.29;28.05;95069.75;10370258;28;1844;-63
2021/12/23 20:38:03;;;;;;;;;;;;;;;17.30;28.09;95073.97;10362266;28;1828;-63
2021/12/23 20:43:04;;;;;;;;;;;;;;;17.29;27.91;95061.13;10360736;28;2009;-63
2021/12/23 20:48:04;;;;;;;;;;;;;;;17.28;28.13;95068.22;10371012;28;1930;-63
2021/12/23 20:53:06;;;;;;;;;;;;;;;17.25;28.00;95065.34;10362492;28;1796;-62
2021/12/23 20:58:07;;;;;;;;;;;;;;;17.23;27.92;95064.84;10361922;28;1771;-64
2021/12/23 21:03:08;;;;;;;;;;;;;;;17.19;28.22;95066.41;10357439;28;2216;-65
2021/12/23 21:08:08;;;;;;;;;;;;;;;17.19;28.23;95067.19;10386133;28;1836;-64
2021/12/23 21:13:09;;;;;;;;;;;;;;;17.20;27.79;95071.38;10378824;28;1974;-64
2021/12/23 21:18:09;;;;;;;;;;;;;;;17.13;28.34;95064.84;10362060;28;1846;-65
2021/12/23 21:23:10;;;;;;;;;;;;;;;17.15;28.31;95060.91;10361160;28;1918;-64
2021/12/23 21:28:11;;;;;;;;;;;;;;;17.13;28.26;95060.41;10362613;28;1816;-65
2021/12/23 21:33:12;;;;;;;;;;;;;;;17.08;28.22;95048.09;10377263;28;1851;-63
2021/12/23 21:38:12;;;;;;;;;;;;;;;17.13;28.17;95049.94;10364793;28;1855;-65
2021/12/23 21:43:15;;;;;;;;;;;;;;;17.19;28.19;95053.31;10372038;28;1914;-64
2021/12/23 21:48:15;;;;;;;;;;;;;;;17.30;28.12;95046.97;10361936;28;2004;-64
2021/12/23 21:53:16;;;;;;;;;;;;;;;17.41;27.93;95051.91;10363977;28;1879;-65
2021/12/23 21:58:16;;;;;;;;;;;;;;;17.48;27.98;95047.16;10356149;28;1915;-65
2021/12/23 22:03:17;;;;;;;;;;;;;;;17.59;27.76;95053.94;10371607;28;1906;-65
2021/12/23 22:08:17;;;;;;;;;;;;;;;17.67;27.69;95045.50;10364381;28;1895;-64
2021/12/23 22:13:18;;;;;;;;;;;;;;;17.75;27.78;95057.22;10377978;28;2136;-63
2021/12/23 22:18:18;;;;;;;;;;;;;;;17.84;27.63;95059.03;10428203;23;1869;-41
2021/12/23 22:23:19;;;;;;;;;;;;;;;17.88;27.65;95056.63;10392633;28;2038;-43
2021/12/23 22:28:19;;;;;;;;;;;;;;;17.96;27.59;95047.41;10395580;28;1883;-39
2021/12/23 22:33:19;;;;;;;;;;;;;;;17.97;27.72;95052.34;10400241;28;1834;-43
2021/12/23 22:38:20;;;;;;;;;;;;;;;18.08;27.43;95034.72;10405912;28;2034;-43
2021/12/23 22:43:21;;;;;;;;;;;;;;;18.08;27.58;95034.72;10398812;28;1968;-40
2021/12/23 22:48:21;;;;;;;;;;;;;;;18.11;27.58;95021.06;10399780;28;1879;-43
2021/12/23 22:53:21;;;;;;;;;;;;;;;18.17;27.46;95025.22;10401354;28;2031;-39
2021/12/23 22:58:22;;;;;;;;;;;;;;;18.19;27.55;95025.72;10404167;28;1773;-40
2021/12/23 23:03:26;;;;;;;;;;;;;;;18.21;27.67;95027.00;10403772;28;1953;-40
2021/12/23 23:08:28;;;;;;;;;;;;;;;18.23;27.47;95016.25;10402529;28;2053;-41
2021/12/23 23:13:33;;;;;;;;;;;;;;;18.25;27.50;95014.13;10381137;28;1973;-44
2021/12/23 23:18:34;;;;;;;;;;;;;;;18.24;27.47;95008.09;10405698;28;1926;-40
2021/12/23 23:23:52;;;;;;;;;;;;;;;18.24;27.69;95015.16;10380644;28;2025;-43
2021/12/23 23:44:31;;;;;;;;;;;;;;;18.24;27.68;95013.31;10411084;28;1882;-42
2021/12/23 23:49:31;;;;;;;;;;;;;;;18.20;27.63;95001.03;10404376;28;2012;-40
2021/12/23 23:54:32;;;;;;;;;;;;;;;18.17;27.71;95006.84;10419067;28;1803;-41
2021/12/23 23:59:32;;;;;;;;;;;;;;;18.21;27.67;95007.88;10404314;28;1903;-43
